createdAt,value
2022-09-03T00:00:55.808Z,1.80
2022-09-03T00:03:27.897Z,1.80
2022-09-03T00:06:17.540Z,1.60
2022-09-03T00:09:23.071Z,1.67
2022-09-03T00:12:22.563Z,1.80
2022-09-03T00:15:01.683Z,1.70
2022-09-03T00:17:38.245Z,1.77
2022-09-03T00:20:13.754Z,1.75
2022-09-03T00:22:47.191Z,1.90
2022-09-03T00:25:29.792Z,1.63
2022-09-03T00:27:57.794Z,1.92
2022-09-03T00:30:25.924Z,1.52
2022-09-03T00:33:07.042Z,2.00
2022-09-03T00:35:38.311Z,2.17
2022-09-03T00:38:07.098Z,2.17
2022-09-03T00:40:54.708Z,2.00
2022-09-03T00:43:32.663Z,1.92
2022-09-03T00:46:05.306Z,2.30
2022-09-03T00:48:39.778Z,2.20
2022-09-03T00:51:20.448Z,1.92
2022-09-03T00:54:00.418Z,2.58
2022-09-03T00:56:31.459Z,2.22
2022-09-03T00:59:01.981Z,2.38
2022-09-03T01:01:46.032Z,2.20
2022-09-03T01:04:25.651Z,2.22
2022-09-03T01:07:11.079Z,2.40
2022-09-03T01:09:42.443Z,2.38
2022-09-03T01:12:33.064Z,2.08
2022-09-03T01:15:12.548Z,2.05
2022-09-03T01:17:49.146Z,2.08
2022-09-03T01:20:45.823Z,2.10
2022-09-03T01:23:35.943Z,2.00
2022-09-03T01:26:29.600Z,2.33
2022-09-03T01:29:25.601Z,1.90
2022-09-03T01:32:10.166Z,2.15
2022-09-03T01:34:53.919Z,2.17
2022-09-03T01:37:43.045Z,2.00
2022-09-03T01:40:22.401Z,2.10
2022-09-03T01:43:36.902Z,2.10
2022-09-03T01:49:05.211Z,2.47
2022-09-03T01:51:33.922Z,2.33
2022-09-03T01:54:33.013Z,1.90
2022-09-03T01:57:34.609Z,2.00
2022-09-03T02:00:16.392Z,2.28
2022-09-03T02:02:47.959Z,2.20
2022-09-03T02:05:24.227Z,1.92
2022-09-03T02:07:57.804Z,1.90
2022-09-03T02:10:48.556Z,2.08
2022-09-03T02:13:27.023Z,2.13
2022-09-03T02:15:56.387Z,2.20
2022-09-03T02:18:31.580Z,1.85
2022-09-03T02:20:59.110Z,1.88
2022-09-03T02:23:27.578Z,1.85
2022-09-03T02:25:57.232Z,1.80
2022-09-03T02:28:25.735Z,2.30
2022-09-03T02:30:53.443Z,1.92
2022-09-03T02:33:21.014Z,2.13
2022-09-03T02:35:48.873Z,1.83
2022-09-03T02:38:21.181Z,1.85
2022-09-03T02:40:51.635Z,2.00
2022-09-03T02:43:27.673Z,1.80
2022-09-03T02:45:57.471Z,1.95
2022-09-03T02:48:25.470Z,1.92
2022-09-03T02:50:53.059Z,1.83
2022-09-03T02:53:22.969Z,1.70
2022-09-03T02:55:50.545Z,1.98
2022-09-03T02:58:18.677Z,2.05
2022-09-03T03:00:46.101Z,1.67
2022-09-03T03:03:13.590Z,1.90
2022-09-03T03:05:45.763Z,1.67
2022-09-03T03:08:15.242Z,1.98
2022-09-03T03:10:45.017Z,1.98
2022-09-03T03:13:12.830Z,2.08
2022-09-03T03:15:40.471Z,1.90
2022-09-03T03:18:08.042Z,2.15
2022-09-03T03:20:37.360Z,1.73
2022-09-03T03:23:05.633Z,1.98
2022-09-03T03:25:34.359Z,2.00
2022-09-03T03:28:01.989Z,1.80
2022-09-03T03:30:29.420Z,2.03
2022-09-03T03:32:57.081Z,2.00
2022-09-03T03:35:24.479Z,2.05
2022-09-03T03:37:51.952Z,2.22
2022-09-03T03:40:20.279Z,2.10
2022-09-03T03:42:47.717Z,2.45
2022-09-03T03:45:15.175Z,2.35
2022-09-03T03:47:42.582Z,2.38
2022-09-03T03:50:13.205Z,2.05
2022-09-03T03:52:41.810Z,2.10
2022-09-03T03:55:09.332Z,2.30
2022-09-03T03:57:36.991Z,2.15
2022-09-03T04:00:04.986Z,1.90
2022-09-03T04:02:41.826Z,2.20
2022-09-03T04:05:09.563Z,2.20
2022-09-03T04:07:37.084Z,1.77
2022-09-03T04:10:05.151Z,1.90
2022-09-03T04:12:33.244Z,1.80
2022-09-03T04:15:00.660Z,1.80
2022-09-03T04:17:28.427Z,1.95
2022-09-03T04:19:58.335Z,1.58
2022-09-03T04:22:25.759Z,1.90
2022-09-03T04:24:53.255Z,1.98
2022-09-03T04:27:20.694Z,1.80
2022-09-03T04:29:48.184Z,1.90
2022-09-03T04:32:34.199Z,2.20
2022-09-03T04:35:01.684Z,2.10
2022-09-03T04:37:29.634Z,2.13
2022-09-03T04:39:57.273Z,2.38
2022-09-03T04:42:24.904Z,2.17
2022-09-03T04:44:52.419Z,1.90
2022-09-03T04:47:22.568Z,2.00
2022-09-03T04:49:50.052Z,2.00
2022-09-03T04:52:17.471Z,2.17
2022-09-03T04:54:44.996Z,2.08
2022-09-03T04:57:12.797Z,2.20
2022-09-03T04:59:41.159Z,2.10
2022-09-03T05:02:10.174Z,2.00
2022-09-03T05:04:37.798Z,1.98
2022-09-03T05:07:05.219Z,2.15
2022-09-03T05:09:32.667Z,2.17
2022-09-03T05:12:00.123Z,2.20
2022-09-03T05:14:27.700Z,2.05
2022-09-03T05:16:55.185Z,1.98
2022-09-03T05:19:22.648Z,2.30
2022-09-03T05:21:52.724Z,2.45
2022-09-03T05:24:21.265Z,2.17
2022-09-03T05:26:49.001Z,2.20
2022-09-03T05:29:16.635Z,1.80
2022-09-03T05:31:44.176Z,1.85
2022-09-03T05:34:16.425Z,2.03
2022-09-03T05:36:45.275Z,1.80
2022-09-03T05:39:12.719Z,1.90
2022-09-03T05:41:40.333Z,1.92
2022-09-03T05:44:07.794Z,1.88
2022-09-03T05:46:38.047Z,2.00
2022-09-03T05:49:06.448Z,1.90
2022-09-03T05:51:34.954Z,1.80
2022-09-03T05:54:03.014Z,1.92
2022-09-03T05:56:30.887Z,1.92
2022-09-03T05:59:02.879Z,1.98
2022-09-03T06:01:32.079Z,2.17
2022-09-03T06:04:00.990Z,2.15
2022-09-03T06:06:29.331Z,1.70
2022-09-03T06:09:00.856Z,2.03
2022-09-03T06:11:29.616Z,1.80
2022-09-03T06:13:57.649Z,1.90
2022-09-03T06:16:31.744Z,1.98
2022-09-03T06:19:02.752Z,1.85
2022-09-03T06:21:30.323Z,1.83
2022-09-03T06:23:59.493Z,1.88
2022-09-03T06:26:30.797Z,1.98
2022-09-03T06:28:58.447Z,2.00
2022-09-03T06:31:26.203Z,2.00
2022-09-03T06:33:54.770Z,1.92
2022-09-03T06:36:23.218Z,2.03
2022-09-03T06:38:54.593Z,2.10
2022-09-03T06:41:27.343Z,1.70
2022-09-03T06:43:59.091Z,1.70
2022-09-03T06:46:26.584Z,1.80
2022-09-03T06:48:55.559Z,2.22
2022-09-03T06:51:24.309Z,1.90
2022-09-03T06:53:53.279Z,2.10
2022-09-03T06:56:27.070Z,2.08
2022-09-03T06:58:56.182Z,1.83
2022-09-03T07:01:25.899Z,1.83
2022-09-03T07:03:58.952Z,2.00
2022-09-03T07:06:30.202Z,1.83
2022-09-03T07:08:59.792Z,2.03
2022-09-03T07:11:29.361Z,1.90
2022-09-03T07:13:57.936Z,2.03
2022-09-03T07:16:27.814Z,2.22
2022-09-03T07:18:56.110Z,1.90
2022-09-03T07:21:27.712Z,2.20
2022-09-03T07:23:55.623Z,1.90
2022-09-03T07:26:27.903Z,1.88
2022-09-03T07:28:56.105Z,2.08
2022-09-03T07:31:27.840Z,2.00
2022-09-03T07:33:59.235Z,2.35
2022-09-03T07:36:28.392Z,2.15
2022-09-03T07:38:57.254Z,2.20
2022-09-03T07:41:28.947Z,2.35
2022-09-03T07:43:57.265Z,2.10
2022-09-03T07:46:27.216Z,2.10
2022-09-03T07:48:56.097Z,2.20
2022-09-03T07:51:29.199Z,2.15
2022-09-03T07:54:02.097Z,2.10
2022-09-03T07:56:32.473Z,2.20
2022-09-03T07:58:59.995Z,2.00
2022-09-03T08:01:35.521Z,2.28
2022-09-03T08:04:04.371Z,2.30
2022-09-03T08:06:32.944Z,1.95
2022-09-03T08:09:05.084Z,2.35
2022-09-03T08:11:35.189Z,2.20
2022-09-03T08:14:09.972Z,2.30
2022-09-03T08:16:39.609Z,2.13
2022-09-03T08:19:07.655Z,2.25
2022-09-03T08:21:35.251Z,2.17
2022-09-03T08:24:03.023Z,2.13
2022-09-03T08:26:32.152Z,2.10
2022-09-03T08:29:00.305Z,2.17
2022-09-03T08:31:28.363Z,2.03
2022-09-03T08:33:57.681Z,2.30
2022-09-03T08:36:26.971Z,1.75
2022-09-03T08:38:57.418Z,1.98
2022-09-03T08:42:01.084Z,2.22
2022-09-03T08:44:29.497Z,2.00
2022-09-03T08:47:10.656Z,1.85
2022-09-03T08:49:56.745Z,2.10
2022-09-03T08:52:49.129Z,1.90
2022-09-03T08:55:26.923Z,2.10
2022-09-03T08:58:14.590Z,1.90
2022-09-03T09:00:49.966Z,1.85
2022-09-03T09:03:23.357Z,2.10
2022-09-03T09:06:05.312Z,2.00
2022-09-03T09:08:51.230Z,2.38
2022-09-03T09:11:19.549Z,1.98
2022-09-03T09:13:56.789Z,2.00
2022-09-03T09:16:40.957Z,1.85
2022-09-03T09:19:17.424Z,2.10
2022-09-03T09:21:57.252Z,2.10
2022-09-03T09:24:26.542Z,1.55
2022-09-03T09:27:02.033Z,1.65
2022-09-03T09:29:35.531Z,1.77
2022-09-03T09:32:04.927Z,1.70
2022-09-03T09:34:38.751Z,2.30
2022-09-03T09:37:14.831Z,1.70
2022-09-03T09:39:53.553Z,2.00
2022-09-03T09:42:21.954Z,2.00
2022-09-03T09:44:49.414Z,1.80
2022-09-03T09:47:21.426Z,1.70
2022-09-03T09:49:48.777Z,2.13
2022-09-03T09:52:17.364Z,1.90
2022-09-03T09:54:48.080Z,1.65
2022-09-03T09:57:19.974Z,1.90
2022-09-03T09:59:48.102Z,1.95
2022-09-03T10:02:29.049Z,1.95
2022-09-03T10:05:12.715Z,1.70
2022-09-03T10:07:40.102Z,1.70
2022-09-03T10:10:18.424Z,1.70
2022-09-03T10:13:09.444Z,1.40
2022-09-03T10:15:52.180Z,1.73
2022-09-03T10:18:40.628Z,1.90
2022-09-03T10:21:26.439Z,1.63
2022-09-03T10:24:16.514Z,1.88
2022-09-03T10:26:45.999Z,1.80
2022-09-03T10:29:21.528Z,1.95
2022-09-03T10:32:02.203Z,1.75
2022-09-03T10:34:41.170Z,1.50
2022-09-03T10:37:41.023Z,1.40
2022-09-03T10:40:42.003Z,1.65
2022-09-03T10:43:30.208Z,1.63
2022-09-03T10:46:09.536Z,1.90
2022-09-03T10:49:14.373Z,1.67
2022-09-03T10:51:49.411Z,1.67
2022-09-03T10:54:33.080Z,1.50
2022-09-03T10:57:32.557Z,1.60
2022-09-03T11:00:10.923Z,1.67
2022-09-03T11:02:59.442Z,1.70
2022-09-03T11:05:38.642Z,1.80
2022-09-03T11:08:22.021Z,1.75
2022-09-03T11:10:57.351Z,2.17
2022-09-03T11:13:44.495Z,1.70
2022-09-03T11:16:27.050Z,1.55
2022-09-03T11:19:01.332Z,1.40
2022-09-03T11:24:15.971Z,1.80
2022-09-03T11:26:55.519Z,1.75
2022-09-03T11:30:00.268Z,1.80
2022-09-03T11:32:55.578Z,2.22
2022-09-03T11:35:32.448Z,1.83
2022-09-03T11:38:01.565Z,1.80
2022-09-03T11:40:32.439Z,1.67
2022-09-03T11:43:29.900Z,1.60
2022-09-03T11:46:21.904Z,1.75
2022-09-03T11:48:53.231Z,1.70
2022-09-03T11:51:37.849Z,1.80
2022-09-03T11:57:06.391Z,1.90
2022-09-03T11:59:33.860Z,1.98
2022-09-03T12:02:03.643Z,1.48
2022-09-03T12:04:52.800Z,1.60
2022-09-03T12:07:55.336Z,1.80
2022-09-03T12:10:39.343Z,1.85
2022-09-03T12:13:24.379Z,2.08
2022-09-03T12:16:00.484Z,1.83
2022-09-03T12:18:32.047Z,1.98
2022-09-03T12:21:00.264Z,1.60
2022-09-03T12:23:32.619Z,1.73
2022-09-03T12:26:08.024Z,1.58
2022-09-03T12:28:37.722Z,1.83
2022-09-03T12:31:08.306Z,1.70
2022-09-03T12:33:41.802Z,1.77
2022-09-03T12:36:09.832Z,1.90
2022-09-03T12:39:00.778Z,1.60
2022-09-03T12:41:29.427Z,1.80
2022-09-03T12:43:59.010Z,1.65
2022-09-03T12:46:33.644Z,1.75
2022-09-03T12:52:14.810Z,1.70
2022-09-03T12:55:06.269Z,1.70
2022-09-03T12:57:49.562Z,1.63
2022-09-03T13:00:18.423Z,1.70
2022-09-03T13:02:59.383Z,1.88
2022-09-03T13:05:48.643Z,1.48
2022-09-03T13:08:25.317Z,1.95
2022-09-03T13:10:57.999Z,1.75
2022-09-03T13:13:30.892Z,1.77
2022-09-03T13:16:14.615Z,1.75
2022-09-03T13:19:13.448Z,1.88
2022-09-03T13:21:52.975Z,1.80
2022-09-03T13:24:26.159Z,1.90
2022-09-03T13:27:19.884Z,1.90
2022-09-03T13:30:05.286Z,1.70
2022-09-03T13:32:52.630Z,1.85
2022-09-03T13:35:35.873Z,1.98
2022-09-03T13:38:24.715Z,1.90
2022-09-03T13:41:25.506Z,1.95
2022-09-03T13:44:02.719Z,2.10
2022-09-03T13:46:52.627Z,1.70
2022-09-03T13:50:20.068Z,1.98
2022-09-03T13:53:06.343Z,1.92
2022-09-03T13:55:48.207Z,2.00
2022-09-03T13:58:21.692Z,1.80
2022-09-03T14:01:03.232Z,2.00
2022-09-03T14:03:32.673Z,2.25
2022-09-03T14:06:14.803Z,1.73
2022-09-03T14:09:16.377Z,1.83
2022-09-03T14:11:55.261Z,1.98
2022-09-03T14:14:31.697Z,1.92
2022-09-03T14:17:15.462Z,1.77
2022-09-03T14:20:00.939Z,2.05
2022-09-03T14:22:34.378Z,2.10
2022-09-03T14:25:04.640Z,2.05
2022-09-03T14:27:34.394Z,2.03
2022-09-03T14:30:06.671Z,2.08
2022-09-03T14:32:52.610Z,1.98
2022-09-03T14:35:27.417Z,1.98
2022-09-03T14:38:32.051Z,1.90
2022-09-03T14:41:18.520Z,1.90
2022-09-03T14:44:13.663Z,1.80
2022-09-03T14:47:05.923Z,1.90
2022-09-03T14:49:36.060Z,2.10
2022-09-03T14:52:12.691Z,1.92
2022-09-03T14:55:07.963Z,2.00
2022-09-03T14:58:10.743Z,2.00
2022-09-03T15:01:39.321Z,1.83
2022-09-03T15:04:10.025Z,1.90
2022-09-03T15:06:51.641Z,1.67
2022-09-03T15:09:40.174Z,1.92
2022-09-03T15:12:14.107Z,2.10
2022-09-03T15:14:55.365Z,2.25
2022-09-03T15:17:44.893Z,1.90
2022-09-03T15:20:17.444Z,2.10
2022-09-03T15:22:50.182Z,1.90
2022-09-03T15:25:31.135Z,2.10
2022-09-03T15:28:11.824Z,2.30
2022-09-03T15:30:43.778Z,2.05
2022-09-03T15:33:17.270Z,1.95
2022-09-03T15:36:02.740Z,2.20
2022-09-03T15:38:50.735Z,1.70
2022-09-03T15:41:50.887Z,2.17
2022-09-03T15:44:20.012Z,2.10
2022-09-03T15:46:49.844Z,2.22
2022-09-03T15:49:32.986Z,1.90
2022-09-03T15:52:04.090Z,2.28
2022-09-03T15:54:43.098Z,2.40
2022-09-03T15:57:15.752Z,2.13
2022-09-03T15:59:59.383Z,2.10
2022-09-03T16:02:33.577Z,2.03
2022-09-03T16:07:37.163Z,2.53
2022-09-03T16:10:28.230Z,2.42
2022-09-03T16:13:33.305Z,2.13
2022-09-03T16:18:39.191Z,2.10
2022-09-03T16:21:15.280Z,2.00
2022-09-03T16:24:03.394Z,2.33
2022-09-03T16:26:36.698Z,2.17
2022-09-03T16:29:08.907Z,2.13
2022-09-03T16:31:47.219Z,2.03
2022-09-03T16:34:39.713Z,2.20
2022-09-03T16:37:15.111Z,2.30
2022-09-03T16:39:52.957Z,2.30
2022-09-03T16:42:52.838Z,2.25
2022-09-03T16:45:41.356Z,2.33
2022-09-03T16:48:30.700Z,2.47
2022-09-03T16:51:28.814Z,2.00
2022-09-03T16:54:09.112Z,2.55
2022-09-03T16:56:53.852Z,2.45
2022-09-03T16:59:28.938Z,2.13
2022-09-03T17:02:13.875Z,2.30
2022-09-03T17:05:08.848Z,2.20
2022-09-03T17:07:54.448Z,2.10
2022-09-03T17:10:49.175Z,2.30
2022-09-03T17:13:30.882Z,2.13
2022-09-03T17:16:29.332Z,2.22
2022-09-03T17:19:25.055Z,2.00
2022-09-03T17:22:17.659Z,2.28
2022-09-03T17:25:06.246Z,2.17
2022-09-03T17:27:46.392Z,2.22
2022-09-03T17:30:35.014Z,2.20
2022-09-03T17:33:17.945Z,2.15
2022-09-03T17:35:54.676Z,2.30
2022-09-03T17:38:50.487Z,1.92
2022-09-03T17:41:49.084Z,2.15
2022-09-03T17:44:23.275Z,2.20
2022-09-03T17:49:48.524Z,2.40
2022-09-03T17:52:35.923Z,1.73
2022-09-03T17:55:13.392Z,2.05
2022-09-03T17:57:45.772Z,2.40
2022-09-03T18:00:32.029Z,2.35
2022-09-03T18:03:13.738Z,2.10
2022-09-03T18:05:59.808Z,2.22
2022-09-03T18:08:33.980Z,1.90
2022-09-03T18:13:52.312Z,2.13
2022-09-03T18:16:31.866Z,2.50
2022-09-03T18:19:32.147Z,2.30
2022-09-03T18:22:19.887Z,2.40
2022-09-03T18:25:12.536Z,2.08
2022-09-03T18:28:05.531Z,2.00
2022-09-03T18:30:52.105Z,2.13
2022-09-03T18:33:41.555Z,2.35
2022-09-03T18:36:27.766Z,2.05
2022-09-03T18:39:16.910Z,2.03
2022-09-03T18:42:12.161Z,2.15
2022-09-03T18:45:42.028Z,2.58
2022-09-03T18:48:46.481Z,2.25
2022-09-03T18:51:39.604Z,2.13
2022-09-03T18:55:03.908Z,2.22
2022-09-03T18:58:23.277Z,2.25
2022-09-03T19:01:54.524Z,2.03
2022-09-03T19:04:54.795Z,2.42
2022-09-03T19:08:02.449Z,2.35
2022-09-03T19:11:09.398Z,2.38
2022-09-03T19:13:56.810Z,2.50
2022-09-03T19:17:12.378Z,2.60
2022-09-03T19:19:58.493Z,2.28
2022-09-03T19:22:55.152Z,2.50
2022-09-03T19:25:41.252Z,2.50
2022-09-03T19:28:47.664Z,2.80
2022-09-03T19:31:55.024Z,2.63
2022-09-03T19:34:59.066Z,2.50
2022-09-03T19:37:53.854Z,2.53
2022-09-03T19:41:04.216Z,2.90
2022-09-03T19:44:25.544Z,2.40
2022-09-03T19:47:18.792Z,2.80
2022-09-03T19:50:15.437Z,2.45
2022-09-03T19:53:14.751Z,2.55
2022-09-03T19:56:07.727Z,2.40
2022-09-03T19:58:54.394Z,2.47
2022-09-03T20:01:40.413Z,2.40
2022-09-03T20:04:31.935Z,2.67
2022-09-03T20:07:23.433Z,2.50
2022-09-03T20:10:09.476Z,2.47
2022-09-03T20:12:41.503Z,2.83
2022-09-03T20:15:11.163Z,2.92
2022-09-03T20:17:39.820Z,2.65
2022-09-03T20:20:13.616Z,2.85
2022-09-03T20:23:01.325Z,2.70
2022-09-03T20:25:49.472Z,2.42
2022-09-03T20:28:27.653Z,2.53
2022-09-03T20:31:10.289Z,2.45
2022-09-03T20:33:43.849Z,2.80
2022-09-03T20:36:26.782Z,2.60
2022-09-03T20:38:54.093Z,2.72
2022-09-03T20:41:37.862Z,2.60
2022-09-03T20:44:16.753Z,2.60
2022-09-03T20:47:13.924Z,2.63
2022-09-03T20:49:58.586Z,2.80
2022-09-03T20:55:17.589Z,2.45
2022-09-03T20:58:03.318Z,2.55
2022-09-03T21:00:45.164Z,2.70
2022-09-03T21:03:22.379Z,2.63
2022-09-03T21:06:24.391Z,2.30
2022-09-03T21:09:05.054Z,3.08
2022-09-03T21:11:44.547Z,2.50
2022-09-03T21:14:41.453Z,2.40
2022-09-03T21:17:40.892Z,2.45
2022-09-03T21:20:43.402Z,2.40
2022-09-03T21:23:31.853Z,2.63
2022-09-03T21:26:06.263Z,2.70
2022-09-03T21:28:38.499Z,2.33
2022-09-03T21:31:21.954Z,2.50
2022-09-03T21:33:51.056Z,2.42
2022-09-03T21:36:30.463Z,2.45
2022-09-03T21:39:10.082Z,2.50
2022-09-03T21:41:48.171Z,2.90
2022-09-03T21:44:27.185Z,2.45
2022-09-03T21:47:01.821Z,2.55
2022-09-03T21:49:34.436Z,2.40
2022-09-03T21:52:04.838Z,2.60
2022-09-03T21:54:33.768Z,2.70
2022-09-03T21:57:26.456Z,2.47
2022-09-03T22:00:12.197Z,2.30
2022-09-03T22:02:42.331Z,2.58
2022-09-03T22:05:09.967Z,2.20
2022-09-03T22:08:14.851Z,2.50
2022-09-03T22:10:56.968Z,2.38
2022-09-03T22:13:56.731Z,2.83
2022-09-03T22:16:54.855Z,2.30
2022-09-03T22:19:23.321Z,2.65
2022-09-03T22:21:59.646Z,2.10
2022-09-03T22:24:37.475Z,2.20
2022-09-03T22:27:29.880Z,2.58
2022-09-03T22:30:09.736Z,2.55
2022-09-03T22:32:58.732Z,2.63
2022-09-03T22:35:50.082Z,2.50
2022-09-03T22:38:49.401Z,2.30
2022-09-03T22:41:38.178Z,1.98
2022-09-03T22:44:08.144Z,2.30
2022-09-03T22:46:53.053Z,2.40
2022-09-03T22:50:11.489Z,2.55
2022-09-03T22:52:45.555Z,2.15
2022-09-03T22:55:25.374Z,2.60
2022-09-03T22:58:17.454Z,2.55
2022-09-03T23:00:51.172Z,2.45
2022-09-03T23:03:25.123Z,2.40
2022-09-03T23:06:17.791Z,2.40
2022-09-03T23:08:49.762Z,2.17
2022-09-03T23:11:45.637Z,2.35
2022-09-03T23:14:15.906Z,2.50
2022-09-03T23:16:52.759Z,2.50
2022-09-03T23:19:30.446Z,2.50
2022-09-03T23:22:01.134Z,2.05
2022-09-03T23:24:36.954Z,2.20
2022-09-03T23:27:07.449Z,2.30
2022-09-03T23:29:37.072Z,2.22
2022-09-03T23:32:05.399Z,2.10
2022-09-03T23:34:33.050Z,2.13
2022-09-03T23:37:31.960Z,2.33
2022-09-03T23:40:00.452Z,2.13
2022-09-03T23:42:27.826Z,2.35
2022-09-03T23:45:26.328Z,2.20
2022-09-03T23:48:27.836Z,2.08
2022-09-03T23:50:57.947Z,2.30
2022-09-03T23:53:37.468Z,2.00
2022-09-03T23:56:26.785Z,2.13
2022-09-03T23:59:32.852Z,2.08
